If you wish to contribute or participate in the discussions about articles you are invited to join SKYbrary as a registered user

 Actions

Niederstetten Air Base

From SKYbrary Wiki

ETHN
Airport
ICAO: ETHN
Summary
Name Niederstetten Air Base
Region Europe
Territory Germany DE.gif
Location Niederstetten, Baden-Württemberg
Serving
Coordinates 49° 23' 26.29" N, 9° 57' 40.73" E
Runways
Designator Length Width Surface ROPS
7/25 1012 m3,320.21 ft
30 m98.425 ft
ASP /


METAR
Observation ETHN 200420Z 01004KT 0200 FZFG M01/M01 Q1017 RED
Station Niederstetten
Date/Time 20 November 2019 04:20:00
Wind direction 10°
Wind speed 04 kts
Lowest cloud amount n/a
Temperature
Dew point
Humidity 100%
QNH 1017 hPa
Weather condition n/a

Niederstetten Air Base

ICAO: ETHN IATA: ---

Description

Niederstetten Air Base is located 4 km2.16 nm
4,000 m
13,123.36 ft
east of the city of Niederstetten in Northern Baden-Württemberg, Germany.

Maps

Terrain

Loading map...

Airport Layout

Loading map...



Accidents & Serious Incidents at or in vicinity of ETHN

None on SKYbrary